sensor_id;sensor_type;location;lat;lon;timestamp;P1;durP1;ratioP1;P2;durP2;ratioP2
22363;SDS011;11349;53.412;-1.328;2023-08-24T00:02:03;6.60;;;3.50;;
22363;SDS011;11349;53.412;-1.328;2023-08-24T00:04:28;5.97;;;3.60;;
22363;SDS011;11349;53.412;-1.328;2023-08-24T00:06:54;6.05;;;3.47;;
22363;SDS011;11349;53.412;-1.328;2023-08-24T00:09:20;6.53;;;3.45;;
22363;SDS011;11349;53.412;-1.328;2023-08-24T00:11:46;8.38;;;3.70;;
22363;SDS011;11349;53.412;-1.328;2023-08-24T00:14:12;8.05;;;3.60;;
22363;SDS011;11349;53.412;-1.328;2023-08-24T00:16:38;6.85;;;3.63;;
22363;SDS011;11349;53.412;-1.328;2023-08-24T00:19:04;5.78;;;4.00;;
22363;SDS011;11349;53.412;-1.328;2023-08-24T00:21:30;7.38;;;3.70;;
22363;SDS011;11349;53.412;-1.328;2023-08-24T00:23:56;8.90;;;4.60;;
22363;SDS011;11349;53.412;-1.328;2023-08-24T00:26:21;7.13;;;4.25;;
22363;SDS011;11349;53.412;-1.328;2023-08-24T00:28:48;10.02;;;4.07;;
22363;SDS011;11349;53.412;-1.328;2023-08-24T00:31:17;6.80;;;3.90;;
22363;SDS011;11349;53.412;-1.328;2023-08-24T00:33:43;10.02;;;3.95;;
22363;SDS011;11349;53.412;-1.328;2023-08-24T00:36:08;6.95;;;3.67;;
22363;SDS011;11349;53.412;-1.328;2023-08-24T00:38:34;7.30;;;4.00;;
22363;SDS011;11349;53.412;-1.328;2023-08-24T00:41:00;9.57;;;4.80;;
22363;SDS011;11349;53.412;-1.328;2023-08-24T00:43:26;8.85;;;4.20;;
22363;SDS011;11349;53.412;-1.328;2023-08-24T00:45:53;6.13;;;4.22;;
22363;SDS011;11349;53.412;-1.328;2023-08-24T00:48:24;8.93;;;4.72;;
22363;SDS011;11349;53.412;-1.328;2023-08-24T00:50:52;7.18;;;4.45;;
22363;SDS011;11349;53.412;-1.328;2023-08-24T00:53:18;7.88;;;4.47;;
22363;SDS011;11349;53.412;-1.328;2023-08-24T00:55:46;11.00;;;4.45;;
22363;SDS011;11349;53.412;-1.328;2023-08-24T00:58:11;12.10;;;4.82;;
22363;SDS011;11349;53.412;-1.328;2023-08-24T01:00:39;8.57;;;4.45;;
22363;SDS011;11349;53.412;-1.328;2023-08-24T01:03:04;9.60;;;4.25;;
22363;SDS011;11349;53.412;-1.328;2023-08-24T01:05:30;8.07;;;4.75;;
22363;SDS011;11349;53.412;-1.328;2023-08-24T01:07:56;8.57;;;4.80;;
22363;SDS011;11349;53.412;-1.328;2023-08-24T01:10:22;10.65;;;6.03;;
22363;SDS011;11349;53.412;-1.328;2023-08-24T01:17:46;10.00;;;5.45;;
22363;SDS011;11349;53.412;-1.328;2023-08-24T01:20:15;10.25;;;4.80;;
22363;SDS011;11349;53.412;-1.328;2023-08-24T01:26:26;8.93;;;4.82;;
22363;SDS011;11349;53.412;-1.328;2023-08-24T01:28:35;11.25;;;4.63;;
22363;SDS011;11349;53.412;-1.328;2023-08-24T01:31:03;9.70;;;4.80;;
22363;SDS011;11349;53.412;-1.328;2023-08-24T01:33:30;6.88;;;4.35;;
22363;SDS011;11349;53.412;-1.328;2023-08-24T01:35:55;7.78;;;4.47;;
22363;SDS011;11349;53.412;-1.328;2023-08-24T01:38:21;10.68;;;4.78;;
22363;SDS011;11349;53.412;-1.328;2023-08-24T01:40:49;9.00;;;4.70;;
22363;SDS011;11349;53.412;-1.328;2023-08-24T01:43:31;9.40;;;5.43;;
22363;SDS011;11349;53.412;-1.328;2023-08-24T01:46:00;11.38;;;4.85;;
22363;SDS011;11349;53.412;-1.328;2023-08-24T01:48:28;8.02;;;4.47;;
22363;SDS011;11349;53.412;-1.328;2023-08-24T01:50:56;8.75;;;4.35;;
22363;SDS011;11349;53.412;-1.328;2023-08-24T01:53:23;9.43;;;4.38;;
22363;SDS011;11349;53.412;-1.328;2023-08-24T01:55:50;8.65;;;4.25;;
22363;SDS011;11349;53.412;-1.328;2023-08-24T01:58:18;6.90;;;4.80;;
22363;SDS011;11349;53.412;-1.328;2023-08-24T02:00:44;9.48;;;4.97;;
22363;SDS011;11349;53.412;-1.328;2023-08-24T02:03:10;10.10;;;4.78;;
22363;SDS011;11349;53.412;-1.328;2023-08-24T02:05:36;7.85;;;4.63;;
22363;SDS011;11349;53.412;-1.328;2023-08-24T02:08:01;9.65;;;5.15;;
22363;SDS011;11349;53.412;-1.328;2023-08-24T02:10:27;7.65;;;4.72;;
22363;SDS011;11349;53.412;-1.328;2023-08-24T02:12:53;6.65;;;4.32;;
22363;SDS011;11349;53.412;-1.328;2023-08-24T02:15:19;10.75;;;4.60;;
22363;SDS011;11349;53.412;-1.328;2023-08-24T02:17:44;7.32;;;4.90;;
22363;SDS011;11349;53.412;-1.328;2023-08-24T02:20:10;8.65;;;4.75;;
22363;SDS011;11349;53.412;-1.328;2023-08-24T02:22:36;7.85;;;5.00;;
22363;SDS011;11349;53.412;-1.328;2023-08-24T02:25:03;8.90;;;5.18;;
22363;SDS011;11349;53.412;-1.328;2023-08-24T02:27:30;9.73;;;5.18;;
22363;SDS011;11349;53.412;-1.328;2023-08-24T02:29:56;7.60;;;5.18;;
22363;SDS011;11349;53.412;-1.328;2023-08-24T02:32:22;9.32;;;5.53;;
22363;SDS011;11349;53.412;-1.328;2023-08-24T02:34:48;11.65;;;5.38;;
22363;SDS011;11349;53.412;-1.328;2023-08-24T02:37:13;9.57;;;5.50;;
22363;SDS011;11349;53.412;-1.328;2023-08-24T02:39:39;10.25;;;5.88;;
22363;SDS011;11349;53.412;-1.328;2023-08-24T02:42:05;10.25;;;5.10;;
22363;SDS011;11349;53.412;-1.328;2023-08-24T02:44:30;11.32;;;5.10;;
22363;SDS011;11349;53.412;-1.328;2023-08-24T02:46:56;8.98;;;5.10;;
22363;SDS011;11349;53.412;-1.328;2023-08-24T02:49:22;9.93;;;5.60;;
22363;SDS011;11349;53.412;-1.328;2023-08-24T02:51:48;9.25;;;6.03;;
22363;SDS011;11349;53.412;-1.328;2023-08-24T02:54:14;9.18;;;5.53;;
22363;SDS011;11349;53.412;-1.328;2023-08-24T02:56:39;10.23;;;5.20;;
22363;SDS011;11349;53.412;-1.328;2023-08-24T02:59:05;8.38;;;4.88;;
22363;SDS011;11349;53.412;-1.328;2023-08-24T03:01:31;8.43;;;5.40;;
22363;SDS011;11349;53.412;-1.328;2023-08-24T03:03:57;8.60;;;4.88;;
22363;SDS011;11349;53.412;-1.328;2023-08-24T03:06:23;11.23;;;5.70;;
22363;SDS011;11349;53.412;-1.328;2023-08-24T03:08:51;10.48;;;5.40;;
22363;SDS011;11349;53.412;-1.328;2023-08-24T03:11:17;8.70;;;4.45;;
22363;SDS011;11349;53.412;-1.328;2023-08-24T03:13:42;9.35;;;4.50;;
22363;SDS011;11349;53.412;-1.328;2023-08-24T03:16:08;7.35;;;4.60;;
22363;SDS011;11349;53.412;-1.328;2023-08-24T03:18:34;8.95;;;5.10;;
22363;SDS011;11349;53.412;-1.328;2023-08-24T03:21:00;8.18;;;4.60;;
22363;SDS011;11349;53.412;-1.328;2023-08-24T03:23:26;11.10;;;5.30;;
22363;SDS011;11349;53.412;-1.328;2023-08-24T03:25:52;8.93;;;4.95;;
22363;SDS011;11349;53.412;-1.328;2023-08-24T03:28:18;8.73;;;5.03;;
22363;SDS011;11349;53.412;-1.328;2023-08-24T03:30:47;9.98;;;5.28;;
22363;SDS011;11349;53.412;-1.328;2023-08-24T03:33:16;8.68;;;5.03;;
22363;SDS011;11349;53.412;-1.328;2023-08-24T03:35:41;7.63;;;4.80;;
22363;SDS011;11349;53.412;-1.328;2023-08-24T03:38:07;10.35;;;5.97;;
22363;SDS011;11349;53.412;-1.328;2023-08-24T03:40:33;11.27;;;6.18;;
22363;SDS011;11349;53.412;-1.328;2023-08-24T03:43:00;8.38;;;5.25;;
22363;SDS011;11349;53.412;-1.328;2023-08-24T03:45:28;6.28;;;4.20;;
22363;SDS011;11349;53.412;-1.328;2023-08-24T03:47:54;8.68;;;4.35;;
22363;SDS011;11349;53.412;-1.328;2023-08-24T03:50:19;9.75;;;4.55;;
22363;SDS011;11349;53.412;-1.328;2023-08-24T03:52:47;7.03;;;4.88;;
22363;SDS011;11349;53.412;-1.328;2023-08-24T03:55:15;7.60;;;4.80;;
22363;SDS011;11349;53.412;-1.328;2023-08-24T03:57:41;9.00;;;4.35;;
22363;SDS011;11349;53.412;-1.328;2023-08-24T04:00:07;8.75;;;5.10;;
22363;SDS011;11349;53.412;-1.328;2023-08-24T04:02:42;8.43;;;4.50;;
22363;SDS011;11349;53.412;-1.328;2023-08-24T04:05:09;12.45;;;5.50;;
22363;SDS011;11349;53.412;-1.328;2023-08-24T04:07:35;9.55;;;5.22;;
22363;SDS011;11349;53.412;-1.328;2023-08-24T04:10:05;9.13;;;5.20;;
22363;SDS011;11349;53.412;-1.328;2023-08-24T04:12:31;9.48;;;5.25;;
22363;SDS011;11349;53.412;-1.328;2023-08-24T04:14:57;9.45;;;5.18;;
22363;SDS011;11349;53.412;-1.328;2023-08-24T04:17:24;7.40;;;4.80;;
22363;SDS011;11349;53.412;-1.328;2023-08-24T04:19:50;7.65;;;4.57;;
22363;SDS011;11349;53.412;-1.328;2023-08-24T04:22:15;13.63;;;5.78;;
22363;SDS011;11349;53.412;-1.328;2023-08-24T04:24:43;10.02;;;5.13;;
22363;SDS011;11349;53.412;-1.328;2023-08-24T04:27:09;9.40;;;5.00;;
22363;SDS011;11349;53.412;-1.328;2023-08-24T04:29:35;8.45;;;5.82;;
22363;SDS011;11349;53.412;-1.328;2023-08-24T04:32:00;8.32;;;6.35;;
22363;SDS011;11349;53.412;-1.328;2023-08-24T04:34:26;11.75;;;6.15;;
22363;SDS011;11349;53.412;-1.328;2023-08-24T04:36:52;10.57;;;6.45;;
22363;SDS011;11349;53.412;-1.328;2023-08-24T04:39:17;11.77;;;6.35;;
22363;SDS011;11349;53.412;-1.328;2023-08-24T04:41:46;11.90;;;6.15;;
22363;SDS011;11349;53.412;-1.328;2023-08-24T04:44:12;11.07;;;6.90;;
22363;SDS011;11349;53.412;-1.328;2023-08-24T04:46:37;12.43;;;6.90;;
22363;SDS011;11349;53.412;-1.328;2023-08-24T04:49:03;11.63;;;6.75;;
22363;SDS011;11349;53.412;-1.328;2023-08-24T04:51:29;8.20;;;5.68;;
22363;SDS011;11349;53.412;-1.328;2023-08-24T04:53:55;9.38;;;6.30;;
22363;SDS011;11349;53.412;-1.328;2023-08-24T04:56:21;10.38;;;6.00;;
22363;SDS011;11349;53.412;-1.328;2023-08-24T04:58:53;11.30;;;6.63;;
22363;SDS011;11349;53.412;-1.328;2023-08-24T05:01:21;12.32;;;7.25;;
22363;SDS011;11349;53.412;-1.328;2023-08-24T05:03:48;10.68;;;5.93;;
22363;SDS011;11349;53.412;-1.328;2023-08-24T05:06:13;10.27;;;5.63;;
22363;SDS011;11349;53.412;-1.328;2023-08-24T05:08:39;8.98;;;5.63;;
22363;SDS011;11349;53.412;-1.328;2023-08-24T05:11:12;11.13;;;6.90;;
22363;SDS011;11349;53.412;-1.328;2023-08-24T05:13:39;10.00;;;6.30;;
22363;SDS011;11349;53.412;-1.328;2023-08-24T05:16:05;9.13;;;5.90;;
22363;SDS011;11349;53.412;-1.328;2023-08-24T05:18:31;11.32;;;6.50;;
22363;SDS011;11349;53.412;-1.328;2023-08-24T05:20:57;11.57;;;6.07;;
22363;SDS011;11349;53.412;-1.328;2023-08-24T05:23:22;12.13;;;5.55;;
22363;SDS011;11349;53.412;-1.328;2023-08-24T05:25:48;9.25;;;5.85;;
22363;SDS011;11349;53.412;-1.328;2023-08-24T05:28:14;12.55;;;6.45;;
22363;SDS011;11349;53.412;-1.328;2023-08-24T05:30:43;13.18;;;5.85;;
22363;SDS011;11349;53.412;-1.328;2023-08-24T05:33:09;10.68;;;6.43;;
22363;SDS011;11349;53.412;-1.328;2023-08-24T05:35:35;10.38;;;5.72;;
22363;SDS011;11349;53.412;-1.328;2023-08-24T05:38:00;10.65;;;5.78;;
22363;SDS011;11349;53.412;-1.328;2023-08-24T05:40:26;8.02;;;5.28;;
22363;SDS011;11349;53.412;-1.328;2023-08-24T05:42:52;11.07;;;5.78;;
22363;SDS011;11349;53.412;-1.328;2023-08-24T05:45:18;9.52;;;4.95;;
22363;SDS011;11349;53.412;-1.328;2023-08-24T05:47:44;8.45;;;4.93;;
22363;SDS011;11349;53.412;-1.328;2023-08-24T05:50:12;10.65;;;5.20;;
22363;SDS011;11349;53.412;-1.328;2023-08-24T05:52:37;6.97;;;4.22;;
22363;SDS011;11349;53.412;-1.328;2023-08-24T05:55:03;8.23;;;4.05;;
22363;SDS011;11349;53.412;-1.328;2023-08-24T05:57:29;6.88;;;4.18;;
22363;SDS011;11349;53.412;-1.328;2023-08-24T05:59:55;8.98;;;3.97;;
22363;SDS011;11349;53.412;-1.328;2023-08-24T06:02:20;8.75;;;3.85;;
22363;SDS011;11349;53.412;-1.328;2023-08-24T06:04:46;9.45;;;4.80;;
22363;SDS011;11349;53.412;-1.328;2023-08-24T06:07:12;7.50;;;3.60;;
22363;SDS011;11349;53.412;-1.328;2023-08-24T06:09:38;10.13;;;4.85;;
22363;SDS011;11349;53.412;-1.328;2023-08-24T06:12:04;8.95;;;4.65;;
22363;SDS011;11349;53.412;-1.328;2023-08-24T06:14:30;6.38;;;4.32;;
22363;SDS011;11349;53.412;-1.328;2023-08-24T06:16:55;7.47;;;4.18;;
22363;SDS011;11349;53.412;-1.328;2023-08-24T06:19:21;6.40;;;3.90;;
22363;SDS011;11349;53.412;-1.328;2023-08-24T06:21:47;8.70;;;3.75;;
22363;SDS011;11349;53.412;-1.328;2023-08-24T06:24:13;8.48;;;3.90;;
22363;SDS011;11349;53.412;-1.328;2023-08-24T06:26:39;5.95;;;3.22;;
22363;SDS011;11349;53.412;-1.328;2023-08-24T06:29:05;6.80;;;4.20;;
22363;SDS011;11349;53.412;-1.328;2023-08-24T06:31:30;5.60;;;3.35;;
22363;SDS011;11349;53.412;-1.328;2023-08-24T06:33:58;5.40;;;3.10;;
22363;SDS011;11349;53.412;-1.328;2023-08-24T06:36:23;7.30;;;3.30;;
22363;SDS011;11349;53.412;-1.328;2023-08-24T06:38:49;7.07;;;3.60;;
22363;SDS011;11349;53.412;-1.328;2023-08-24T06:41:15;6.78;;;3.60;;
22363;SDS011;11349;53.412;-1.328;2023-08-24T06:43:43;7.82;;;4.10;;
22363;SDS011;11349;53.412;-1.328;2023-08-24T06:46:09;7.57;;;3.97;;
22363;SDS011;11349;53.412;-1.328;2023-08-24T06:48:35;6.82;;;3.90;;
22363;SDS011;11349;53.412;-1.328;2023-08-24T06:51:02;7.15;;;3.72;;
22363;SDS011;11349;53.412;-1.328;2023-08-24T06:53:28;5.43;;;3.40;;
22363;SDS011;11349;53.412;-1.328;2023-08-24T06:55:55;6.90;;;3.47;;
22363;SDS011;11349;53.412;-1.328;2023-08-24T06:58:21;5.68;;;3.20;;
22363;SDS011;11349;53.412;-1.328;2023-08-24T07:00:49;5.72;;;3.50;;
22363;SDS011;11349;53.412;-1.328;2023-08-24T07:03:19;10.60;;;3.33;;
22363;SDS011;11349;53.412;-1.328;2023-08-24T07:05:45;8.10;;;3.10;;
22363;SDS011;11349;53.412;-1.328;2023-08-24T07:08:12;5.70;;;3.20;;
22363;SDS011;11349;53.412;-1.328;2023-08-24T07:10:38;5.65;;;3.13;;
22363;SDS011;11349;53.412;-1.328;2023-08-24T07:13:04;5.63;;;2.83;;
22363;SDS011;11349;53.412;-1.328;2023-08-24T07:15:32;6.18;;;3.38;;
22363;SDS011;11349;53.412;-1.328;2023-08-24T07:18:00;6.68;;;3.38;;
22363;SDS011;11349;53.412;-1.328;2023-08-24T07:20:27;5.88;;;3.17;;
22363;SDS011;11349;53.412;-1.328;2023-08-24T07:22:52;4.38;;;2.63;;
22363;SDS011;11349;53.412;-1.328;2023-08-24T07:25:19;6.55;;;3.03;;
22363;SDS011;11349;53.412;-1.328;2023-08-24T07:27:47;6.80;;;2.58;;
22363;SDS011;11349;53.412;-1.328;2023-08-24T07:30:13;6.43;;;2.60;;
22363;SDS011;11349;53.412;-1.328;2023-08-24T07:32:39;6.57;;;2.47;;
22363;SDS011;11349;53.412;-1.328;2023-08-24T07:35:06;5.28;;;2.67;;
22363;SDS011;11349;53.412;-1.328;2023-08-24T07:37:32;5.25;;;2.75;;
22363;SDS011;11349;53.412;-1.328;2023-08-24T07:39:57;4.15;;;2.22;;
22363;SDS011;11349;53.412;-1.328;2023-08-24T07:42:23;5.82;;;2.50;;
22363;SDS011;11349;53.412;-1.328;2023-08-24T07:44:49;4.88;;;2.33;;
22363;SDS011;11349;53.412;-1.328;2023-08-24T07:47:15;5.13;;;2.28;;
22363;SDS011;11349;53.412;-1.328;2023-08-24T07:49:41;5.80;;;2.83;;
22363;SDS011;11349;53.412;-1.328;2023-08-24T07:52:12;4.45;;;2.45;;
22363;SDS011;11349;53.412;-1.328;2023-08-24T07:54:38;4.68;;;1.83;;
22363;SDS011;11349;53.412;-1.328;2023-08-24T07:57:04;4.32;;;2.20;;
22363;SDS011;11349;53.412;-1.328;2023-08-24T07:59:30;3.58;;;2.13;;
22363;SDS011;11349;53.412;-1.328;2023-08-24T08:01:56;6.78;;;2.20;;
22363;SDS011;11349;53.412;-1.328;2023-08-24T08:04:22;4.00;;;2.22;;
22363;SDS011;11349;53.412;-1.328;2023-08-24T08:06:48;6.03;;;2.45;;
22363;SDS011;11349;53.412;-1.328;2023-08-24T08:09:13;4.28;;;1.90;;
22363;SDS011;11349;53.412;-1.328;2023-08-24T08:11:39;7.13;;;2.05;;
22363;SDS011;11349;53.412;-1.328;2023-08-24T08:14:05;2.75;;;1.58;;
22363;SDS011;11349;53.412;-1.328;2023-08-24T08:16:30;3.83;;;1.70;;
22363;SDS011;11349;53.412;-1.328;2023-08-24T08:18:56;4.20;;;2.10;;
22363;SDS011;11349;53.412;-1.328;2023-08-24T08:21:22;4.05;;;2.08;;
22363;SDS011;11349;53.412;-1.328;2023-08-24T08:23:48;7.22;;;2.50;;
22363;SDS011;11349;53.412;-1.328;2023-08-24T08:26:14;5.00;;;2.70;;
22363;SDS011;11349;53.412;-1.328;2023-08-24T08:28:41;4.78;;;2.30;;
22363;SDS011;11349;53.412;-1.328;2023-08-24T08:31:06;5.68;;;2.25;;
22363;SDS011;11349;53.412;-1.328;2023-08-24T08:33:33;7.30;;;2.10;;
22363;SDS011;11349;53.412;-1.328;2023-08-24T08:35:58;4.70;;;1.92;;
22363;SDS011;11349;53.412;-1.328;2023-08-24T08:38:24;4.85;;;2.22;;
22363;SDS011;11349;53.412;-1.328;2023-08-24T08:40:56;5.80;;;2.13;;
22363;SDS011;11349;53.412;-1.328;2023-08-24T08:43:28;4.97;;;2.35;;
22363;SDS011;11349;53.412;-1.328;2023-08-24T08:45:55;7.55;;;2.20;;
22363;SDS011;11349;53.412;-1.328;2023-08-24T08:48:22;4.50;;;1.95;;
22363;SDS011;11349;53.412;-1.328;2023-08-24T08:50:52;4.90;;;2.25;;
22363;SDS011;11349;53.412;-1.328;2023-08-24T08:53:22;5.00;;;2.08;;
22363;SDS011;11349;53.412;-1.328;2023-08-24T08:55:49;5.25;;;1.92;;
22363;SDS011;11349;53.412;-1.328;2023-08-24T08:58:20;6.35;;;2.17;;
22363;SDS011;11349;53.412;-1.328;2023-08-24T09:00:46;4.13;;;1.52;;
22363;SDS011;11349;53.412;-1.328;2023-08-24T09:03:14;2.45;;;1.00;;
22363;SDS011;11349;53.412;-1.328;2023-08-24T09:05:42;5.50;;;1.20;;
22363;SDS011;11349;53.412;-1.328;2023-08-24T09:08:11;3.83;;;1.20;;
22363;SDS011;11349;53.412;-1.328;2023-08-24T09:10:37;2.05;;;0.70;;
22363;SDS011;11349;53.412;-1.328;2023-08-24T09:13:03;2.00;;;0.95;;
22363;SDS011;11349;53.412;-1.328;2023-08-24T09:15:32;2.08;;;0.93;;
22363;SDS011;11349;53.412;-1.328;2023-08-24T09:18:01;2.92;;;1.08;;
22363;SDS011;11349;53.412;-1.328;2023-08-24T09:20:28;3.55;;;1.05;;
22363;SDS011;11349;53.412;-1.328;2023-08-24T09:22:54;2.15;;;1.00;;
22363;SDS011;11349;53.412;-1.328;2023-08-24T09:25:22;2.75;;;1.25;;
22363;SDS011;11349;53.412;-1.328;2023-08-24T09:27:58;3.65;;;1.08;;
22363;SDS011;11349;53.412;-1.328;2023-08-24T09:30:31;2.17;;;0.80;;
22363;SDS011;11349;53.412;-1.328;2023-08-24T09:33:09;3.05;;;1.10;;
22363;SDS011;11349;53.412;-1.328;2023-08-24T09:35:36;2.15;;;0.90;;
22363;SDS011;11349;53.412;-1.328;2023-08-24T09:38:21;3.78;;;1.40;;
22363;SDS011;11349;53.412;-1.328;2023-08-24T09:40:51;3.28;;;1.20;;
22363;SDS011;11349;53.412;-1.328;2023-08-24T09:43:18;3.85;;;1.02;;
22363;SDS011;11349;53.412;-1.328;2023-08-24T09:45:53;3.55;;;1.20;;
22363;SDS011;11349;53.412;-1.328;2023-08-24T09:48:20;4.47;;;1.30;;
22363;SDS011;11349;53.412;-1.328;2023-08-24T09:50:56;3.50;;;1.15;;
22363;SDS011;11349;53.412;-1.328;2023-08-24T09:53:23;2.28;;;1.00;;
22363;SDS011;11349;53.412;-1.328;2023-08-24T09:55:53;2.83;;;0.88;;
22363;SDS011;11349;53.412;-1.328;2023-08-24T09:58:26;1.27;;;0.68;;
22363;SDS011;11349;53.412;-1.328;2023-08-24T10:00:54;1.88;;;0.70;;
22363;SDS011;11349;53.412;-1.328;2023-08-24T10:03:21;4.80;;;1.70;;
22363;SDS011;11349;53.412;-1.328;2023-08-24T10:05:54;2.22;;;0.90;;
22363;SDS011;11349;53.412;-1.328;2023-08-24T10:08:26;4.70;;;1.20;;
22363;SDS011;11349;53.412;-1.328;2023-08-24T10:10:55;4.22;;;1.17;;
22363;SDS011;11349;53.412;-1.328;2023-08-24T10:13:47;2.22;;;1.00;;
22363;SDS011;11349;53.412;-1.328;2023-08-24T10:16:18;3.08;;;1.08;;
22363;SDS011;11349;53.412;-1.328;2023-08-24T10:18:46;4.60;;;1.20;;
22363;SDS011;11349;53.412;-1.328;2023-08-24T10:21:13;5.70;;;1.42;;
22363;SDS011;11349;53.412;-1.328;2023-08-24T10:23:39;3.67;;;1.77;;
22363;SDS011;11349;53.412;-1.328;2023-08-24T10:26:08;4.32;;;1.05;;
22363;SDS011;11349;53.412;-1.328;2023-08-24T10:28:37;5.22;;;1.30;;
22363;SDS011;11349;53.412;-1.328;2023-08-24T10:31:03;2.78;;;1.70;;
22363;SDS011;11349;53.412;-1.328;2023-08-24T10:33:30;3.22;;;1.20;;
22363;SDS011;11349;53.412;-1.328;2023-08-24T10:35:59;4.20;;;1.27;;
22363;SDS011;11349;53.412;-1.328;2023-08-24T10:38:25;3.30;;;1.02;;
22363;SDS011;11349;53.412;-1.328;2023-08-24T10:40:55;2.53;;;1.00;;
22363;SDS011;11349;53.412;-1.328;2023-08-24T10:43:29;2.85;;;1.10;;
22363;SDS011;11349;53.412;-1.328;2023-08-24T10:48:29;3.65;;;1.27;;
22363;SDS011;11349;53.412;-1.328;2023-08-24T10:53:44;7.88;;;1.95;;
22363;SDS011;11349;53.412;-1.328;2023-08-24T10:56:35;4.22;;;2.10;;
22363;SDS011;11349;53.412;-1.328;2023-08-24T10:59:14;3.95;;;2.10;;
22363;SDS011;11349;53.412;-1.328;2023-08-24T11:01:42;5.07;;;2.42;;
22363;SDS011;11349;53.412;-1.328;2023-08-24T11:04:19;4.40;;;2.63;;
22363;SDS011;11349;53.412;-1.328;2023-08-24T11:06:52;5.30;;;2.80;;
22363;SDS011;11349;53.412;-1.328;2023-08-24T11:09:19;6.68;;;3.30;;
22363;SDS011;11349;53.412;-1.328;2023-08-24T11:11:58;5.53;;;3.35;;
22363;SDS011;11349;53.412;-1.328;2023-08-24T11:14:25;6.00;;;2.88;;
22363;SDS011;11349;53.412;-1.328;2023-08-24T11:16:57;5.93;;;3.38;;
22363;SDS011;11349;53.412;-1.328;2023-08-24T11:19:47;9.07;;;4.30;;
22363;SDS011;11349;53.412;-1.328;2023-08-24T11:22:17;6.68;;;5.00;;
22363;SDS011;11349;53.412;-1.328;2023-08-24T11:24:46;8.10;;;5.18;;
22363;SDS011;11349;53.412;-1.328;2023-08-24T11:27:12;9.02;;;5.28;;
22363;SDS011;11349;53.412;-1.328;2023-08-24T11:29:38;9.38;;;5.32;;
22363;SDS011;11349;53.412;-1.328;2023-08-24T11:32:04;9.02;;;5.40;;
22363;SDS011;11349;53.412;-1.328;2023-08-24T11:34:30;6.65;;;4.90;;
22363;SDS011;11349;53.412;-1.328;2023-08-24T11:36:56;8.63;;;5.10;;
22363;SDS011;11349;53.412;-1.328;2023-08-24T11:39:22;7.20;;;4.93;;
22363;SDS011;11349;53.412;-1.328;2023-08-24T11:42:03;8.30;;;5.03;;
22363;SDS011;11349;53.412;-1.328;2023-08-24T11:44:46;7.75;;;4.63;;
22363;SDS011;11349;53.412;-1.328;2023-08-24T11:47:16;6.93;;;4.75;;
22363;SDS011;11349;53.412;-1.328;2023-08-24T11:49:45;10.52;;;5.15;;
22363;SDS011;11349;53.412;-1.328;2023-08-24T11:52:11;16.95;;;4.95;;
22363;SDS011;11349;53.412;-1.328;2023-08-24T11:54:40;7.22;;;4.53;;
22363;SDS011;11349;53.412;-1.328;2023-08-24T11:57:07;6.60;;;4.28;;
22363;SDS011;11349;53.412;-1.328;2023-08-24T11:59:34;7.03;;;3.90;;
22363;SDS011;11349;53.412;-1.328;2023-08-24T12:02:01;10.43;;;3.80;;
22363;SDS011;11349;53.412;-1.328;2023-08-24T12:04:27;16.05;;;3.95;;
22363;SDS011;11349;53.412;-1.328;2023-08-24T12:06:53;8.00;;;2.65;;
22363;SDS011;11349;53.412;-1.328;2023-08-24T12:09:19;4.45;;;2.63;;
22363;SDS011;11349;53.412;-1.328;2023-08-24T12:11:45;6.20;;;2.10;;
22363;SDS011;11349;53.412;-1.328;2023-08-24T12:14:16;5.30;;;2.03;;
22363;SDS011;11349;53.412;-1.328;2023-08-24T12:16:42;3.50;;;1.88;;
22363;SDS011;11349;53.412;-1.328;2023-08-24T12:19:08;3.17;;;1.90;;
22363;SDS011;11349;53.412;-1.328;2023-08-24T12:21:35;3.83;;;1.80;;
22363;SDS011;11349;53.412;-1.328;2023-08-24T12:24:13;4.07;;;1.98;;
22363;SDS011;11349;53.412;-1.328;2023-08-24T12:26:39;3.53;;;1.85;;
22363;SDS011;11349;53.412;-1.328;2023-08-24T12:29:05;5.00;;;1.60;;
22363;SDS011;11349;53.412;-1.328;2023-08-24T12:31:33;4.30;;;1.80;;
22363;SDS011;11349;53.412;-1.328;2023-08-24T12:33:59;4.68;;;1.90;;
22363;SDS011;11349;53.412;-1.328;2023-08-24T12:36:26;3.60;;;1.88;;
22363;SDS011;11349;53.412;-1.328;2023-08-24T12:38:52;4.97;;;1.90;;
22363;SDS011;11349;53.412;-1.328;2023-08-24T12:41:18;3.60;;;1.80;;
22363;SDS011;11349;53.412;-1.328;2023-08-24T12:43:44;2.88;;;1.90;;
22363;SDS011;11349;53.412;-1.328;2023-08-24T12:46:10;3.42;;;2.00;;
22363;SDS011;11349;53.412;-1.328;2023-08-24T12:48:35;3.47;;;1.88;;
22363;SDS011;11349;53.412;-1.328;2023-08-24T12:51:01;4.38;;;1.90;;
22363;SDS011;11349;53.412;-1.328;2023-08-24T12:53:27;5.05;;;2.30;;
22363;SDS011;11349;53.412;-1.328;2023-08-24T12:55:55;3.88;;;2.10;;
22363;SDS011;11349;53.412;-1.328;2023-08-24T12:58:21;2.50;;;1.65;;
22363;SDS011;11349;53.412;-1.328;2023-08-24T13:00:46;3.95;;;1.73;;
22363;SDS011;11349;53.412;-1.328;2023-08-24T13:03:13;2.63;;;1.40;;
22363;SDS011;11349;53.412;-1.328;2023-08-24T13:05:40;1.60;;;1.00;;
22363;SDS011;11349;53.412;-1.328;2023-08-24T13:08:06;3.03;;;1.00;;
22363;SDS011;11349;53.412;-1.328;2023-08-24T13:10:32;3.28;;;1.35;;
22363;SDS011;11349;53.412;-1.328;2023-08-24T13:12:58;3.97;;;0.82;;
22363;SDS011;11349;53.412;-1.328;2023-08-24T13:15:24;2.65;;;0.80;;
22363;SDS011;11349;53.412;-1.328;2023-08-24T13:17:49;2.30;;;0.70;;
22363;SDS011;11349;53.412;-1.328;2023-08-24T13:20:15;2.42;;;0.60;;
22363;SDS011;11349;53.412;-1.328;2023-08-24T13:22:41;2.00;;;0.40;;
22363;SDS011;11349;53.412;-1.328;2023-08-24T13:25:07;1.42;;;0.50;;
22363;SDS011;11349;53.412;-1.328;2023-08-24T13:27:33;3.50;;;0.70;;
22363;SDS011;11349;53.412;-1.328;2023-08-24T13:29:59;2.13;;;0.90;;
22363;SDS011;11349;53.412;-1.328;2023-08-24T13:32:25;2.42;;;0.77;;
22363;SDS011;11349;53.412;-1.328;2023-08-24T13:34:51;4.43;;;1.17;;
22363;SDS011;11349;53.412;-1.328;2023-08-24T13:37:17;2.20;;;0.57;;
22363;SDS011;11349;53.412;-1.328;2023-08-24T13:39:43;2.80;;;0.38;;
22363;SDS011;11349;53.412;-1.328;2023-08-24T13:42:09;1.58;;;0.40;;
22363;SDS011;11349;53.412;-1.328;2023-08-24T13:44:35;0.55;;;0.30;;
22363;SDS011;11349;53.412;-1.328;2023-08-24T13:47:00;2.63;;;0.60;;
22363;SDS011;11349;53.412;-1.328;2023-08-24T13:49:26;1.50;;;0.60;;
22363;SDS011;11349;53.412;-1.328;2023-08-24T13:51:52;2.67;;;0.98;;
22363;SDS011;11349;53.412;-1.328;2023-08-24T13:54:18;1.20;;;0.57;;
22363;SDS011;11349;53.412;-1.328;2023-08-24T13:56:46;4.43;;;0.52;;
22363;SDS011;11349;53.412;-1.328;2023-08-24T13:59:12;6.32;;;1.25;;
22363;SDS011;11349;53.412;-1.328;2023-08-24T14:01:39;7.68;;;0.85;;
22363;SDS011;11349;53.412;-1.328;2023-08-24T14:04:06;2.95;;;0.70;;
22363;SDS011;11349;53.412;-1.328;2023-08-24T14:06:32;2.92;;;0.80;;
22363;SDS011;11349;53.412;-1.328;2023-08-24T14:09:02;2.88;;;0.70;;
22363;SDS011;11349;53.412;-1.328;2023-08-24T14:11:30;1.30;;;0.70;;
22363;SDS011;11349;53.412;-1.328;2023-08-24T14:13:57;5.55;;;1.17;;
22363;SDS011;11349;53.412;-1.328;2023-08-24T14:16:24;2.47;;;1.17;;
22363;SDS011;11349;53.412;-1.328;2023-08-24T14:18:51;4.68;;;1.02;;
22363;SDS011;11349;53.412;-1.328;2023-08-24T14:21:18;5.40;;;1.00;;
22363;SDS011;11349;53.412;-1.328;2023-08-24T14:23:45;3.40;;;1.27;;
22363;SDS011;11349;53.412;-1.328;2023-08-24T14:26:11;3.17;;;1.17;;
22363;SDS011;11349;53.412;-1.328;2023-08-24T14:28:47;7.40;;;1.40;;
22363;SDS011;11349;53.412;-1.328;2023-08-24T14:31:15;3.38;;;1.40;;
22363;SDS011;11349;53.412;-1.328;2023-08-24T14:33:44;4.95;;;1.70;;
22363;SDS011;11349;53.412;-1.328;2023-08-24T14:36:10;8.25;;;1.73;;
22363;SDS011;11349;53.412;-1.328;2023-08-24T14:38:39;6.43;;;1.30;;
22363;SDS011;11349;53.412;-1.328;2023-08-24T14:41:06;3.53;;;1.33;;
22363;SDS011;11349;53.412;-1.328;2023-08-24T14:43:34;5.20;;;1.35;;
22363;SDS011;11349;53.412;-1.328;2023-08-24T14:46:00;4.15;;;1.33;;
22363;SDS011;11349;53.412;-1.328;2023-08-24T14:48:25;5.75;;;1.63;;